createdAt,value
2018-01-31T01:52:24.643Z,8.43
2018-01-31T01:54:52.124Z,6.87
2018-01-31T01:57:19.583Z,5.80
2018-01-31T01:59:47.423Z,5.60
2018-01-31T02:02:14.891Z,6.47
2018-01-31T02:04:42.357Z,6.67
2018-01-31T02:07:09.829Z,6.00
2018-01-31T02:09:37.291Z,9.97
2018-01-31T02:12:05.523Z,9.73
2018-01-31T02:14:33.003Z,6.73
2018-01-31T02:17:00.468Z,5.90
2018-01-31T02:19:27.935Z,6.80
2018-01-31T02:21:55.402Z,9.90
2018-01-31T02:24:23.648Z,6.03
2018-01-31T02:26:51.111Z,6.23
2018-01-31T02:29:18.582Z,7.20
2018-01-31T02:31:46.047Z,8.00
2018-01-31T02:34:13.516Z,6.73
2018-01-31T02:36:41.747Z,12.50
2018-01-31T02:39:21.871Z,9.13
2018-01-31T02:41:49.335Z,9.13
2018-01-31T02:44:16.815Z,9.20
2018-01-31T02:46:44.275Z,5.13
2018-01-31T02:49:11.744Z,8.60
2018-01-31T02:51:39.217Z,8.40
2018-01-31T02:54:06.694Z,5.80
2018-01-31T02:56:34.930Z,5.60
2018-01-31T02:59:02.395Z,5.90
2018-01-31T03:01:29.875Z,7.83
2018-01-31T03:03:58.258Z,7.40
2018-01-31T03:06:25.739Z,7.40
2018-01-31T03:08:53.967Z,7.50
2018-01-31T03:11:21.442Z,5.70
2018-01-31T03:13:48.906Z,7.13
2018-01-31T03:16:16.383Z,5.97
2018-01-31T03:18:44.611Z,7.63
2018-01-31T03:21:12.110Z,5.50
2018-01-31T03:23:40.338Z,5.83
2018-01-31T03:26:07.806Z,9.37
2018-01-31T03:28:35.274Z,6.10
2018-01-31T03:31:02.747Z,8.03
2018-01-31T03:33:30.214Z,7.37
2018-01-31T03:35:58.451Z,6.40
2018-01-31T03:38:25.923Z,8.50
2018-01-31T03:40:53.406Z,6.50
2018-01-31T03:43:20.867Z,7.70
2018-01-31T03:45:49.107Z,8.40
2018-01-31T03:48:17.339Z,8.83
2018-01-31T03:50:44.826Z,6.43
2018-01-31T03:53:12.295Z,9.00
2018-01-31T03:55:39.774Z,6.00
2018-01-31T03:58:07.234Z,6.20
2018-01-31T04:00:34.707Z,7.83
2018-01-31T04:03:02.946Z,5.73
2018-01-31T04:05:30.424Z,9.30
2018-01-31T04:07:57.898Z,6.17
2018-01-31T04:10:26.129Z,6.70
2018-01-31T04:12:53.602Z,5.20
2018-01-31T04:15:21.080Z,5.40
2018-01-31T04:17:48.542Z,5.40
2018-01-31T04:20:16.024Z,7.33
2018-01-31T04:22:44.269Z,8.60
2018-01-31T04:25:11.743Z,6.60
2018-01-31T04:27:39.214Z,7.93
2018-01-31T04:30:06.707Z,7.87
2018-01-31T04:32:34.178Z,6.63
2018-01-31T04:35:01.651Z,6.83
2018-01-31T04:37:29.122Z,8.70
2018-01-31T04:39:56.592Z,8.97
2018-01-31T04:42:24.066Z,6.50
2018-01-31T04:44:52.300Z,8.17
2018-01-31T04:47:20.326Z,6.90
2018-01-31T04:49:48.546Z,6.87
2018-01-31T04:52:16.035Z,9.30
2018-01-31T04:54:43.503Z,5.77
2018-01-31T04:57:11.747Z,9.40
2018-01-31T04:59:39.215Z,6.67
2018-01-31T05:02:06.687Z,7.63
2018-01-31T05:04:34.916Z,7.10
2018-01-31T05:07:02.395Z,6.90
2018-01-31T05:09:29.858Z,7.27
2018-01-31T05:11:57.339Z,6.97
2018-01-31T05:14:25.579Z,6.30
2018-01-31T05:16:53.059Z,6.80
2018-01-31T05:19:20.524Z,5.93
2018-01-31T05:21:47.999Z,6.10
2018-01-31T05:24:16.231Z,6.87
2018-01-31T05:26:43.706Z,7.13
2018-01-31T05:29:11.174Z,7.17
2018-01-31T05:31:38.651Z,5.77
2018-01-31T05:34:06.884Z,7.93
2018-01-31T05:36:34.362Z,7.53
2018-01-31T05:39:01.840Z,6.73
2018-01-31T05:41:30.078Z,5.47
2018-01-31T05:43:57.551Z,5.90
2018-01-31T05:46:25.027Z,6.90
2018-01-31T05:48:53.252Z,6.07
2018-01-31T05:51:20.722Z,4.93
2018-01-31T05:53:48.187Z,5.03
2018-01-31T05:56:15.671Z,5.23
2018-01-31T05:58:43.143Z,7.00
2018-01-31T06:01:11.383Z,5.33
2018-01-31T06:03:38.838Z,5.10
2018-01-31T06:06:06.319Z,6.20
2018-01-31T06:08:33.783Z,5.00
2018-01-31T06:11:02.021Z,5.50
2018-01-31T06:13:29.498Z,4.23
2018-01-31T06:15:56.975Z,4.10
2018-01-31T06:18:24.442Z,4.30
2018-01-31T06:20:52.680Z,6.60
2018-01-31T06:23:20.142Z,4.53
2018-01-31T06:25:47.631Z,4.60
2018-01-31T06:28:15.088Z,4.47
2018-01-31T06:30:43.310Z,3.00
2018-01-31T06:33:10.788Z,3.30
2018-01-31T06:35:38.924Z,2.13
2018-01-31T06:38:06.395Z,2.60
2018-01-31T06:40:33.856Z,2.80
2018-01-31T06:43:01.334Z,2.47
2018-01-31T06:45:28.801Z,3.67
2018-01-31T06:47:56.292Z,2.33
2018-01-31T06:50:24.527Z,2.73
2018-01-31T06:52:52.008Z,2.60
2018-01-31T06:55:19.482Z,2.47
2018-01-31T06:57:47.752Z,3.03
2018-01-31T07:00:15.218Z,3.30
2018-01-31T07:02:43.461Z,3.13
2018-01-31T07:05:10.923Z,2.33
2018-01-31T07:07:38.395Z,2.60
2018-01-31T07:10:05.887Z,2.83
2018-01-31T07:12:33.366Z,2.27
2018-01-31T07:15:00.832Z,2.70
2018-01-31T07:17:28.316Z,3.70
2018-01-31T07:19:55.803Z,2.57
2018-01-31T07:22:24.044Z,3.03
2018-01-31T07:24:51.515Z,4.73
2018-01-31T07:27:19.175Z,3.63
2018-01-31T07:29:46.646Z,2.40
2018-01-31T07:32:14.118Z,2.47
2018-01-31T07:34:42.366Z,1.93
2018-01-31T07:37:09.845Z,1.57
2018-01-31T07:39:37.319Z,4.40
2018-01-31T07:42:05.567Z,1.67
2018-01-31T07:44:33.030Z,1.50
2018-01-31T07:47:00.503Z,1.40
2018-01-31T07:49:28.741Z,1.27
2018-01-31T07:51:56.219Z,1.20
2018-01-31T07:54:23.684Z,1.27
2018-01-31T07:56:51.150Z,1.37
2018-01-31T07:59:20.207Z,1.30
2018-01-31T08:01:47.732Z,0.90
2018-01-31T08:04:15.147Z,1.27
2018-01-31T08:06:42.610Z,1.90
2018-01-31T08:09:10.070Z,1.53
2018-01-31T08:11:38.306Z,1.10
2018-01-31T08:14:06.548Z,1.27
2018-01-31T08:16:34.027Z,1.00
2018-01-31T08:19:01.494Z,1.03
2018-01-31T08:21:28.962Z,0.80
2018-01-31T08:23:56.440Z,1.10
2018-01-31T08:26:23.907Z,1.17
2018-01-31T08:28:51.384Z,1.17
2018-01-31T08:31:19.615Z,0.90
2018-01-31T08:33:47.082Z,1.10
2018-01-31T08:36:14.552Z,1.00
2018-01-31T08:38:42.027Z,1.07
2018-01-31T08:41:09.588Z,1.10
2018-01-31T08:43:37.833Z,0.97
2018-01-31T08:46:05.295Z,1.30
2018-01-31T08:48:33.037Z,1.30
2018-01-31T08:51:00.498Z,1.40
2018-01-31T08:53:27.967Z,1.30
2018-01-31T08:55:55.429Z,1.27
2018-01-31T08:58:22.924Z,1.70
2018-01-31T09:00:51.161Z,1.83
2018-01-31T09:03:18.644Z,1.10
2018-01-31T09:05:46.111Z,3.10
2018-01-31T09:08:13.595Z,1.30
2018-01-31T09:10:41.058Z,1.63
2018-01-31T09:13:08.535Z,1.00
2018-01-31T09:15:36.906Z,0.93
2018-01-31T09:18:04.379Z,1.53
2018-01-31T09:20:31.839Z,0.90
2018-01-31T09:22:59.318Z,0.80
2018-01-31T09:25:26.781Z,0.80
2018-01-31T09:27:54.259Z,1.30
2018-01-31T09:30:21.718Z,0.90
2018-01-31T09:32:49.194Z,0.80
2018-01-31T09:35:17.427Z,1.30
2018-01-31T09:37:44.904Z,1.00
2018-01-31T09:40:12.377Z,2.20
2018-01-31T09:42:40.622Z,1.47
2018-01-31T09:45:08.088Z,0.50
2018-01-31T09:47:35.550Z,0.90
2018-01-31T09:50:03.020Z,3.50
2018-01-31T09:52:34.936Z,0.80
2018-01-31T09:55:00.185Z,0.97
2018-01-31T09:57:27.671Z,0.60
2018-01-31T09:59:55.130Z,1.00
2018-01-31T10:02:22.630Z,1.70
2018-01-31T10:04:50.100Z,0.70
2018-01-31T10:07:17.574Z,0.87
2018-01-31T10:09:45.031Z,0.60
2018-01-31T10:12:12.518Z,0.83
2018-01-31T10:14:40.016Z,0.70
2018-01-31T10:17:07.499Z,0.53
2018-01-31T10:19:34.964Z,0.60
2018-01-31T10:22:02.442Z,1.47
2018-01-31T10:24:30.686Z,0.70
2018-01-31T10:26:58.142Z,3.37
2018-01-31T10:29:25.622Z,0.53
2018-01-31T10:31:53.083Z,0.50
2018-01-31T10:34:20.572Z,0.60
2018-01-31T10:36:48.041Z,1.13
2018-01-31T10:39:15.511Z,0.60
2018-01-31T10:41:43.014Z,0.83
2018-01-31T10:44:10.492Z,0.50
2018-01-31T10:46:38.727Z,0.50
2018-01-31T10:49:06.199Z,0.50
2018-01-31T10:51:33.670Z,0.60
2018-01-31T10:58:57.690Z,0.50
2018-01-31T11:01:25.922Z,0.60
2018-01-31T11:03:53.406Z,0.60
2018-01-31T11:06:20.881Z,1.43
2018-01-31T11:08:49.124Z,0.60
2018-01-31T11:11:16.596Z,0.53
2018-01-31T11:13:44.078Z,0.60
2018-01-31T11:16:12.315Z,0.60
2018-01-31T11:18:39.803Z,1.13
2018-01-31T11:21:08.068Z,0.60
2018-01-31T11:23:35.539Z,1.27
2018-01-31T11:26:03.773Z,0.90
2018-01-31T11:28:31.250Z,0.50
2018-01-31T11:30:58.728Z,0.40
2018-01-31T11:33:26.217Z,0.63
2018-01-31T11:35:54.427Z,0.60
2018-01-31T11:38:21.914Z,0.63
2018-01-31T11:40:49.375Z,0.50
2018-01-31T11:43:16.847Z,0.60
2018-01-31T11:45:45.079Z,0.70
2018-01-31T11:48:12.566Z,0.40
2018-01-31T11:50:40.035Z,0.43
2018-01-31T11:53:08.279Z,0.60
2018-01-31T11:55:35.746Z,2.30
2018-01-31T11:58:03.234Z,0.60
2018-01-31T12:00:31.478Z,0.40
2018-01-31T12:02:58.953Z,2.13
2018-01-31T12:05:26.438Z,3.07
2018-01-31T12:07:54.720Z,0.90
2018-01-31T12:10:47.055Z,0.70
2018-01-31T12:16:34.055Z,0.60
2018-01-31T12:22:23.694Z,0.60
2018-01-31T12:25:03.573Z,0.60
2018-01-31T12:27:43.033Z,0.70
2018-01-31T12:30:22.459Z,0.40
2018-01-31T12:33:01.709Z,0.60
2018-01-31T12:35:41.050Z,0.60
2018-01-31T12:38:20.285Z,0.50
2018-01-31T12:40:47.276Z,0.93
2018-01-31T12:43:15.033Z,0.40
2018-01-31T12:45:42.791Z,0.40
2018-01-31T12:48:22.175Z,0.43
2018-01-31T12:51:01.460Z,0.53
2018-01-31T12:53:40.824Z,0.40
2018-01-31T12:56:20.204Z,0.70
2018-01-31T12:58:50.471Z,0.50
2018-01-31T13:01:43.421Z,0.80
2018-01-31T13:04:23.542Z,0.70
2018-01-31T13:07:02.971Z,0.53
2018-01-31T13:09:42.494Z,0.90
2018-01-31T13:12:21.932Z,0.40
2018-01-31T13:15:05.208Z,3.20
2018-01-31T13:20:48.223Z,0.60
2018-01-31T13:23:15.691Z,0.80
2018-01-31T13:25:55.126Z,0.50
2018-01-31T13:28:40.216Z,1.23
2018-01-31T13:31:19.644Z,0.40
2018-01-31T13:33:59.546Z,0.90
2018-01-31T13:36:38.778Z,0.63
2018-01-31T13:39:18.273Z,0.50
2018-01-31T13:41:57.702Z,0.70
2018-01-31T13:44:37.787Z,0.47
2018-01-31T13:47:17.991Z,0.40
2018-01-31T13:49:57.295Z,0.50
2018-01-31T13:52:37.524Z,0.53
2018-01-31T13:55:16.924Z,0.60
2018-01-31T13:57:56.291Z,0.97
2018-01-31T14:00:35.691Z,1.23
2018-01-31T14:06:26.327Z,0.60
2018-01-31T14:09:05.614Z,0.80
2018-01-31T14:11:45.818Z,0.53
2018-01-31T14:14:25.098Z,0.60
2018-01-31T14:17:04.483Z,0.60
2018-01-31T14:19:43.866Z,0.50
2018-01-31T14:22:23.300Z,0.50
2018-01-31T14:25:02.822Z,0.63
2018-01-31T14:27:42.267Z,0.57
2018-01-31T14:33:22.210Z,0.60
2018-01-31T14:36:01.685Z,0.50
2018-01-31T14:38:28.652Z,1.13
2018-01-31T14:40:55.626Z,0.50
2018-01-31T14:43:22.599Z,0.50
2018-01-31T14:45:49.572Z,0.60
2018-01-31T14:48:16.559Z,0.50
2018-01-31T14:50:44.299Z,0.50
2018-01-31T14:53:11.290Z,1.83
2018-01-31T14:55:38.287Z,0.60
2018-01-31T14:58:05.283Z,0.87
2018-01-31T15:00:32.264Z,0.90
2018-01-31T15:02:59.483Z,1.03
2018-01-31T15:05:26.459Z,1.10
2018-01-31T15:07:53.450Z,0.60
2018-01-31T15:10:21.183Z,0.80
2018-01-31T15:12:48.166Z,1.20
2018-01-31T15:15:15.139Z,0.50
2018-01-31T15:17:42.171Z,0.70
2018-01-31T15:20:09.132Z,1.10
2018-01-31T15:22:36.106Z,1.17
2018-01-31T15:25:03.092Z,0.90
2018-01-31T15:27:30.091Z,0.80
2018-01-31T15:29:57.076Z,0.60
2018-01-31T15:32:24.038Z,0.50
2018-01-31T15:34:51.778Z,1.57
2018-01-31T15:37:18.742Z,0.80
2018-01-31T15:39:46.491Z,1.90
2018-01-31T15:42:13.511Z,1.80
2018-01-31T15:44:40.490Z,0.60
2018-01-31T15:47:07.468Z,0.97
2018-01-31T15:49:34.438Z,0.60
2018-01-31T15:52:01.406Z,0.67
2018-01-31T15:54:28.390Z,2.53
2018-01-31T15:56:56.138Z,0.83
2018-01-31T15:59:23.126Z,0.80
2018-01-31T16:01:50.086Z,0.80
2018-01-31T16:04:17.071Z,0.67
2018-01-31T16:06:44.034Z,1.10
2018-01-31T16:09:11.788Z,0.70
2018-01-31T16:11:38.756Z,0.53
2018-01-31T16:14:06.512Z,1.40
2018-01-31T16:16:34.751Z,0.97
2018-01-31T16:19:14.027Z,1.00
2018-01-31T16:21:42.254Z,0.60
2018-01-31T16:24:09.732Z,0.83
2018-01-31T16:26:37.187Z,1.30
2018-01-31T16:29:07.098Z,0.80
2018-01-31T16:31:46.617Z,0.60
2018-01-31T16:34:14.071Z,0.80
2018-01-31T16:36:41.545Z,0.67
2018-01-31T16:39:09.016Z,1.00
2018-01-31T16:41:36.491Z,0.77
2018-01-31T16:44:03.942Z,1.00
2018-01-31T16:46:31.410Z,1.03
2018-01-31T16:48:58.882Z,2.20
2018-01-31T16:51:27.114Z,1.07
2018-01-31T16:53:54.585Z,0.60
2018-01-31T16:56:22.046Z,1.80
2018-01-31T16:58:49.512Z,1.10
2018-01-31T17:01:16.985Z,0.67
2018-01-31T17:03:45.212Z,0.93
2018-01-31T17:06:12.679Z,0.90
2018-01-31T17:08:40.139Z,3.23
2018-01-31T17:11:07.611Z,0.70
2018-01-31T17:13:35.137Z,0.70
2018-01-31T17:16:02.588Z,0.80
2018-01-31T17:18:30.044Z,2.90
2018-01-31T17:20:57.517Z,1.60
2018-01-31T17:23:24.974Z,2.30
2018-01-31T17:25:58.439Z,0.70
2018-01-31T17:28:26.667Z,1.37
2018-01-31T17:30:54.158Z,1.37
2018-01-31T17:33:22.382Z,1.23
2018-01-31T17:35:49.856Z,1.40
2018-01-31T17:38:17.328Z,5.43
2018-01-31T17:40:44.791Z,1.83
2018-01-31T17:43:12.271Z,2.03
2018-01-31T17:45:40.505Z,1.10
2018-01-31T17:48:07.984Z,1.33
2018-01-31T17:50:35.448Z,1.20
2018-01-31T17:53:02.918Z,1.27
2018-01-31T17:55:31.158Z,1.30
2018-01-31T17:57:58.626Z,0.93
2018-01-31T18:00:26.086Z,0.93
2018-01-31T18:02:53.560Z,1.00
2018-01-31T18:05:21.023Z,1.17
2018-01-31T18:07:48.494Z,1.27
2018-01-31T18:10:16.730Z,1.23
2018-01-31T18:12:44.211Z,1.67
2018-01-31T18:15:11.666Z,0.67
2018-01-31T18:17:40.720Z,1.17
2018-01-31T18:20:08.218Z,1.67
2018-01-31T18:22:35.695Z,1.13
2018-01-31T18:25:03.927Z,1.17
2018-01-31T18:27:32.190Z,1.10
2018-01-31T18:29:59.663Z,0.80
2018-01-31T18:32:27.146Z,1.07
2018-01-31T18:34:54.627Z,0.77
2018-01-31T18:37:22.867Z,0.80
2018-01-31T18:39:51.647Z,1.73
2018-01-31T18:42:19.697Z,0.70
2018-01-31T18:44:47.159Z,1.23
2018-01-31T18:47:14.659Z,1.00
2018-01-31T18:49:42.131Z,0.70
2018-01-31T18:52:10.367Z,0.70
2018-01-31T18:54:38.606Z,0.77
2018-01-31T18:57:06.082Z,1.23
2018-01-31T18:59:33.566Z,2.67
2018-01-31T19:02:01.043Z,2.30
2018-01-31T19:04:28.518Z,1.27
2018-01-31T19:06:56.755Z,4.67
2018-01-31T19:09:24.273Z,1.03
2018-01-31T19:11:51.744Z,0.87
2018-01-31T19:14:19.227Z,1.63
2018-01-31T19:16:46.735Z,1.60
2018-01-31T19:19:14.189Z,2.60
2018-01-31T19:21:42.426Z,1.10
2018-01-31T19:24:10.663Z,3.13
2018-01-31T19:26:45.863Z,1.83
2018-01-31T19:29:13.344Z,1.20
2018-01-31T19:31:41.574Z,1.70
2018-01-31T19:34:09.046Z,0.90
2018-01-31T19:36:36.511Z,2.00
2018-01-31T19:39:03.984Z,1.40
2018-01-31T19:41:32.213Z,1.10
2018-01-31T19:43:59.694Z,1.10
2018-01-31T19:46:27.164Z,1.80
2018-01-31T19:48:54.634Z,1.10
2018-01-31T19:51:22.866Z,2.53
2018-01-31T19:53:50.357Z,3.10
2018-01-31T19:56:17.811Z,0.83
2018-01-31T19:58:45.274Z,1.47
2018-01-31T20:01:12.750Z,1.37
2018-01-31T20:03:40.994Z,1.37
2018-01-31T20:06:08.515Z,0.90
2018-01-31T20:08:36.723Z,1.73
2018-01-31T20:11:04.223Z,1.67
2018-01-31T20:13:32.454Z,1.47
2018-01-31T20:15:59.923Z,2.20
2018-01-31T20:18:27.403Z,2.83
2018-01-31T20:20:55.646Z,1.00
2018-01-31T20:23:23.111Z,0.80
2018-01-31T20:25:50.602Z,1.17
2018-01-31T20:28:18.834Z,2.00
2018-01-31T20:30:46.317Z,1.37
2018-01-31T20:33:13.782Z,1.40
2018-01-31T20:35:41.263Z,1.00
2018-01-31T20:38:09.496Z,1.10
2018-01-31T20:40:36.975Z,1.80
2018-01-31T20:43:04.442Z,2.73
2018-01-31T20:45:31.915Z,2.20
2018-01-31T20:47:59.390Z,2.50
2018-01-31T20:50:26.863Z,2.43
2018-01-31T20:52:54.376Z,2.17
2018-01-31T20:55:21.819Z,1.50
2018-01-31T20:57:49.282Z,2.17
2018-01-31T21:00:16.747Z,2.27
2018-01-31T21:02:44.984Z,1.80
2018-01-31T21:05:13.220Z,1.33
2018-01-31T21:07:40.684Z,1.53
2018-01-31T21:10:09.080Z,3.73
2018-01-31T21:12:36.563Z,4.90
2018-01-31T21:15:04.039Z,1.20
2018-01-31T21:17:31.506Z,1.53
2018-01-31T21:19:58.998Z,0.80
2018-01-31T21:22:26.462Z,1.40
2018-01-31T21:24:53.945Z,1.07
2018-01-31T21:27:21.394Z,1.17
2018-01-31T21:29:48.869Z,0.70
2018-01-31T21:32:16.694Z,1.10
2018-01-31T21:34:44.171Z,0.93
2018-01-31T21:37:11.655Z,1.10
2018-01-31T21:39:39.115Z,0.83
2018-01-31T21:42:06.582Z,2.23
2018-01-31T21:44:34.058Z,1.53
2018-01-31T21:47:02.298Z,1.43
2018-01-31T21:49:29.775Z,1.30
2018-01-31T21:51:57.246Z,4.43
2018-01-31T21:54:24.707Z,1.50
2018-01-31T21:56:52.178Z,0.93
2018-01-31T21:59:20.422Z,0.93
2018-01-31T22:01:48.663Z,1.73
2018-01-31T22:04:16.130Z,1.30
2018-01-31T22:06:43.617Z,1.43
2018-01-31T22:09:11.074Z,1.80
2018-01-31T22:11:38.548Z,1.33
2018-01-31T22:14:06.010Z,1.10
2018-01-31T22:16:34.266Z,1.60
2018-01-31T22:19:01.727Z,1.80
2018-01-31T22:21:29.203Z,2.20
2018-01-31T22:23:56.666Z,2.40
2018-01-31T22:26:24.907Z,2.07
2018-01-31T22:28:52.380Z,1.60
2018-01-31T22:31:19.855Z,1.47
2018-01-31T22:33:47.322Z,1.80
2018-01-31T22:36:15.566Z,1.97
2018-01-31T22:38:43.034Z,1.50
2018-01-31T22:41:10.506Z,2.07
2018-01-31T22:43:38.731Z,3.23
2018-01-31T22:46:06.218Z,1.80
2018-01-31T22:48:33.683Z,1.77
2018-01-31T22:51:01.151Z,1.40
2018-01-31T22:53:28.611Z,2.10
2018-01-31T22:55:56.095Z,1.17
2018-01-31T22:58:23.558Z,2.20
2018-01-31T23:00:51.030Z,1.87
2018-01-31T23:03:18.504Z,1.67
2018-01-31T23:05:45.984Z,1.53
2018-01-31T23:08:13.443Z,2.83
2018-01-31T23:10:40.963Z,1.43
2018-01-31T23:13:14.747Z,1.67
2018-01-31T23:15:43.007Z,1.60
2018-01-31T23:18:16.259Z,1.70
2018-01-31T23:20:43.726Z,1.57
2018-01-31T23:23:11.195Z,1.73
2018-01-31T23:25:38.672Z,1.80
2018-01-31T23:28:06.119Z,1.90
2018-01-31T23:30:33.591Z,2.00
2018-01-31T23:33:02.233Z,2.30
2018-01-31T23:35:29.699Z,1.93
2018-01-31T23:37:57.158Z,1.87
2018-01-31T23:40:24.632Z,3.43
2018-01-31T23:42:52.098Z,1.80
2018-01-31T23:45:19.575Z,2.90
2018-01-31T23:47:47.819Z,2.23
2018-01-31T23:50:15.291Z,3.20
2018-01-31T23:52:42.753Z,2.80
2018-01-31T23:55:10.230Z,1.93
2018-01-31T23:57:38.468Z,8.00
